METAR Data
IDs: Format: Raw Decoded Include TAF

Data at: 2357 UTC 25 Oct 2021

PAWG 252256Z 00000KT 8SM -RA FEW041 BKN050 OVC060 07/04 A2912
PAWG 252156Z 00000KT 10SM -RA BKN050 OVC070 07/03 A2909 RMK AO2 SLP851 P0001 T00670033
PAWG 252055Z 00000KT 10SM -RA BKN050 OVC070 06/02 A2909
PAWG 251956Z 29003KT 10SM SCT070 OVC090 07/02 A2909 RMK AO2 SLP851 T00670022
PAWG 251856Z 00000KT 10SM SCT070 OVC090 07/03 A2909 RMK AO2 SLP851 T00720033
PAWG 251756Z 25004KT 10SM SCT070 OVC090 06/04 A2909 RMK AO2 SLP850 60001 T00560039 10061 20039 53003
PAWG 251655Z 00000KT 10SM SCT080 BKN100 05/03 A2908
PAWG 251556Z 00000KT 10SM BKN080 04/04 A2908 RMK AO2 SLP848 T00440039
PAWG 251455Z 00000KT 10SM BKN080 OVC120 05/04 A2908
PAWG 251356Z 00000KT 10SM BKN080 OVC120 05/04 A2908 RMK AO2 SLP849 T00500039
PAWG 251256Z AUTO 00000KT 10SM OVC075 04/03 A2909 RMK AO2 SLP850 T00440028 TSNO
PAWG 251156Z AUTO 00000KT 10SM OVC090 05/03 A2909 RMK AO2 SLP852 P0001 60001 70005 T00500033 10056 20033 58008 TSNO
PAWG 251056Z AUTO 00000KT 10SM BKN090 OVC110 06/04 A2910 RMK AO2 SLP855 T00560039 TSNO
PAWG 250956Z AUTO 09004KT 10SM OVC085 05/04 A2911 RMK AO2 SLP859 T00500039 TSNO
PAWG 250856Z AUTO 10003KT 10SM OVC085 04/02 A2912 RMK AO2 SLP860 T00440022 401220033 56002 TSNO
PAWG 250756Z AUTO 13003KT 10SM CLR 04/02 A2912 RMK AO2 SLP860 T00440017 TSNO
PAWG 250556Z 00000KT 10SM FEW150 06/03 A2912 RMK AO2 SLP862 P0001 60001 T00560028 10122 20056 50003
PAWG 250456Z VRB06KT 10SM FEW150 06/01 A2913 RMK AO2 SLP864 T00610011
PAWG 250356Z 12010KT 10SM FEW150 06/04 A2912 RMK AO2 SLP863 T00610039
PAWG 250256Z 09010G14KT 10SM FEW150 07/04 A2911 RMK AO2 SLP859 T00720039 53002
PAWG 250156Z 06007KT 10SM FEW150 11/M01 A2910 RMK AO2 SLP854 T01061011
PAWG 250056Z 07008KT 10SM FEW150 11/M01 A2911 RMK AO2 SLP856 T01111011
PAWG 242356Z 05007KT 010V080 10SM FEW150 12/M01 A2911 RMK AO2 SLP856 P0001 60002 T01171006 10122 20056 56023
PAWG 242256Z 03009G16KT 340V070 10SM FEW150 12/M02 A2912
PAWG 242156Z 04009G15KT 360V070 10SM FEW150 12/M01 A2914 RMK AO2 SLP869 T01171011
PAWG 242056Z 03008KT 340V060 10SM CLR 12/M02 A2917 RMK AO2 SLP879 60001 T01171017 58040
PAWG 241956Z 00000KT 10SM CLR 11/00 A2921 RMK AO2 SLP892 P0001 T01060000
PAWG 241856Z VRB03KT 10SM CLR 08/02 A2926 RMK AO2 SLP908 T00780022
PAWG 241756Z 00000KT 10SM CLR 06/02 A2929
PAWG 241656Z 00000KT 10SM CLR 05/03 A2932 RMK AO2 SLP930 T00500033
PAWG 241556Z 00000KT 10SM CLR 04/03 A2935 RMK AO2 SLP940 T00390028
PAWG 241456Z 00000KT 10SM CLR 04/02 A2937 RMK AO2 SLP947 60001 T00390022 56024
PAWG 241356Z 11005KT 10SM CLR 04/03 A2939 RMK AO2 SLP953 P0001 T00440033
PAWG 241256Z AUTO 11005KT 10SM CLR 04/03 A2942 RMK AO2 SLP964 T00390033 TSNO